Time;durP1;ratioP1;P1;durP2;ratioP2;P2;SDS_P1;SDS_P2;PMS_P1;PMS_P2;Temp;Humidity;BMP_temperature;BMP_pressure;BME280_temperature;BME280_humidity;BME280_pressure;Samples;Min_cycle;Max_cycle;Signal;HPM_P1;HPM_P2
2021/01/17 00:00:25;;;;;;;33.67;17.48;;;;;;;-1.61;63.98;100417.47;5017521;28;20038;-61
2021/01/17 00:02:52;;;;;;;33.67;18.27;;;;;;;-1.62;63.91;100417.81;5017403;28;20420;-61
2021/01/17 00:05:23;;;;;;;37.17;20.42;;;;;;;-1.56;63.77;100420.06;5017412;28;20025;-62
2021/01/17 00:07:49;;;;;;;47.95;23.95;;;;;;;-1.61;63.57;100416.66;5017510;28;20313;-60
2021/01/17 00:10:18;;;;;;;34.72;19.15;;;;;;;-1.62;63.84;100415.84;5017478;28;20329;-61
2021/01/17 00:12:46;;;;;;;31.65;17.05;;;;;;;-1.65;64.54;100419.22;5018477;28;20025;-62
2021/01/17 00:15:12;;;;;;;27.45;16.58;;;;;;;-1.66;64.62;100420.34;5025592;28;20291;-61
2021/01/17 00:17:38;;;;;;;23.25;13.20;;;;;;;-1.58;65.19;100416.84;5028398;28;20074;-60
2021/01/17 00:20:09;;;;;;;23.63;13.15;;;;;;;-1.62;65.03;100418.59;5030666;28;20029;-62
2021/01/17 00:22:35;;;;;;;24.93;14.00;;;;;;;-1.68;65.42;100421.81;5016875;28;20099;-60
2021/01/17 00:25:00;;;;;;;25.55;13.40;;;;;;;-1.73;66.21;100420.03;5016862;28;20034;-61
2021/01/17 00:27:26;;;;;;;23.38;14.63;;;;;;;-1.74;66.89;100423.91;5016682;28;20029;-61
2021/01/17 00:29:51;;;;;;;23.55;14.07;;;;;;;-1.71;66.99;100425.22;5016895;28;20072;-61
2021/01/17 00:32:16;;;;;;;19.05;13.10;;;;;;;-1.70;67.32;100419.38;5017185;28;20030;-61
2021/01/17 00:34:44;;;;;;;19.88;12.63;;;;;;;-1.70;67.00;100419.38;5016356;28;20076;-61
2021/01/17 00:37:14;;;;;;;21.35;12.90;;;;;;;-1.72;67.80;100423.59;5027836;28;20037;-61
2021/01/17 00:39:39;;;;;;;23.17;12.63;;;;;;;-1.76;67.70;100417.91;5018403;28;20022;-61
2021/01/17 00:42:09;;;;;;;23.55;12.23;;;;;;;-1.80;67.82;100425.19;5016751;28;20037;-60
2021/01/17 00:44:34;;;;;;;21.67;11.65;;;;;;;-1.80;68.02;100416.13;5016313;28;20022;-60
2021/01/17 00:46:59;;;;;;;21.75;11.63;;;;;;;-1.81;68.48;100415.31;5016422;28;20318;-61
2021/01/17 00:49:24;;;;;;;21.30;12.60;;;;;;;-1.85;68.98;100417.06;5022817;28;20146;-60
2021/01/17 00:51:50;;;;;;;30.48;14.98;;;;;;;-1.74;68.42;100417.59;5030109;28;20062;-61
2021/01/17 00:54:15;;;;;;;24.17;12.98;;;;;;;-1.74;68.24;100417.59;5032001;28;20321;-60
2021/01/17 00:56:41;;;;;;;31.92;14.88;;;;;;;-1.78;68.81;100406.41;5031144;28;20157;-63
2021/01/17 00:59:10;;;;;;;23.95;13.48;;;;;;;-1.80;68.49;100405.91;5032830;28;20108;-62
2021/01/17 01:01:40;;;;;;;22.20;12.82;;;;;;;-1.78;69.05;100408.34;5030099;28;20033;-62
2021/01/17 01:04:10;;;;;;;21.80;12.80;;;;;;;-1.78;69.48;100408.34;5031264;28;20033;-59
2021/01/17 01:06:36;;;;;;;20.48;12.57;;;;;;;-1.81;69.22;100403.47;5029956;28;20033;-62
2021/01/17 01:09:10;;;;;;;26.00;13.90;;;;;;;-1.86;69.57;100393.41;5031405;28;20025;-61
2021/01/17 01:11:37;;;;;;;25.88;15.57;;;;;;;-1.82;70.57;100385.31;5030874;28;20033;-61
2021/01/17 01:14:04;;;;;;;25.35;14.15;;;;;;;-1.75;70.73;100389.22;5021208;28;20555;-62
2021/01/17 01:16:29;;;;;;;25.63;14.25;;;;;;;-1.71;70.30;100384.69;5014944;28;20408;-62
2021/01/17 01:18:54;;;;;;;26.27;13.82;;;;;;;-1.63;70.19;100383.09;5015733;28;20101;-63
2021/01/17 01:21:49;;;;;;;27.15;14.18;;;;;;;-1.72;69.42;100385.00;5015799;28;20030;-62
2021/01/17 01:24:15;;;;;;;25.05;13.48;;;;;;;-1.72;70.34;100383.06;5022683;28;20030;-62
2021/01/17 01:26:43;;;;;;;27.77;14.18;;;;;;;-1.77;70.94;100383.22;5021605;28;20363;-62
2021/01/17 01:29:08;;;;;;;25.77;13.43;;;;;;;-1.78;70.18;100376.09;5015856;28;20026;-62
2021/01/17 01:31:35;;;;;;;25.95;13.93;;;;;;;-1.80;70.33;100374.78;5016099;28;20049;-61
2021/01/17 01:34:01;;;;;;;27.98;14.52;;;;;;;-1.80;70.46;100372.03;5015686;28;20312;-61
2021/01/17 01:36:29;;;;;;;24.83;13.85;;;;;;;-1.84;70.82;100363.59;5015571;28;20046;-61
2021/01/17 01:38:55;;;;;;;26.73;13.70;;;;;;;-1.83;70.66;100358.91;5028590;28;20045;-61
2021/01/17 01:41:29;;;;;;;26.88;14.40;;;;;;;-1.80;70.96;100361.00;5016668;28;20026;-61
2021/01/17 01:43:55;;;;;;;27.73;14.13;;;;;;;-1.73;69.75;100358.59;5015741;28;20034;-61
2021/01/17 01:46:24;;;;;;;25.52;14.00;;;;;;;-1.78;70.15;100364.25;5015556;28;20104;-61
2021/01/17 01:48:50;;;;;;;25.02;12.80;;;;;;;-1.71;70.44;100357.13;5015659;28;20037;-61
2021/01/17 01:51:17;;;;;;;22.55;12.05;;;;;;;-1.69;69.91;100354.88;5015712;28;20043;-61
2021/01/17 01:53:43;;;;;;;21.10;12.57;;;;;;;-1.71;70.25;100350.81;5015425;28;20022;-61
2021/01/17 01:56:09;;;;;;;22.52;12.73;;;;;;;-1.69;70.01;100348.53;5015505;28;20059;-61
2021/01/17 01:58:37;;;;;;;22.52;12.95;;;;;;;-1.62;70.01;100346.94;5015564;28;20030;-60
2021/01/17 02:01:04;;;;;;;22.67;12.50;;;;;;;-1.64;69.84;100343.72;5015763;28;20480;-60
2021/01/17 02:03:29;;;;;;;21.30;12.50;;;;;;;-1.61;70.46;100345.81;5015535;28;20014;-61
2021/01/17 02:05:55;;;;;;;22.75;11.75;;;;;;;-1.58;70.25;100336.91;5015290;28;20088;-62
2021/01/17 02:08:48;;;;;;;20.45;11.60;;;;;;;-1.63;70.68;100341.75;5015479;28;20314;-61
2021/01/17 02:11:36;;;;;;;20.30;11.30;;;;;;;-1.74;70.27;100341.25;5015646;28;20026;-58
2021/01/17 02:14:23;;;;;;;22.35;12.27;;;;;;;-1.71;71.05;100340.59;5016435;28;20029;-60
2021/01/17 02:16:51;;;;;;;17.52;10.88;;;;;;;-1.64;70.25;100340.16;5019122;28;20414;-60
2021/01/17 02:19:19;;;;;;;20.08;10.27;;;;;;;-1.68;70.96;100336.38;5019120;28;20026;-61
2021/01/17 02:21:56;;;;;;;18.23;11.00;;;;;;;-1.73;70.94;100326.31;5019122;28;20113;-61
2021/01/17 02:24:29;;;;;;;17.95;10.98;;;;;;;-1.74;71.14;100327.47;5019167;28;20406;-61
2021/01/17 02:26:55;;;;;;;18.48;10.73;;;;;;;-1.78;70.42;100328.44;5019028;28;20369;-61
2021/01/17 02:29:20;;;;;;;22.70;11.00;;;;;;;-1.83;70.41;100321.13;5019207;28;20022;-61
2021/01/17 02:31:46;;;;;;;25.20;12.75;;;;;;;-1.77;71.36;100316.28;5018882;28;20047;-61
2021/01/17 02:34:15;;;;;;;21.13;11.98;;;;;;;-1.66;70.39;100314.81;5023017;28;20410;-61
2021/01/17 02:36:40;;;;;;;24.02;11.90;;;;;;;-1.74;70.32;100310.94;5027789;28;20060;-61
2021/01/17 02:39:13;;;;;;;20.55;10.73;;;;;;;-1.86;70.45;100305.25;5021298;28;20033;-61
2021/01/17 02:41:58;;;;;;;18.17;10.80;;;;;;;-1.78;70.50;100307.19;5029065;28;20079;-61
2021/01/17 02:44:28;;;;;;;19.70;12.05;;;;;;;-1.91;70.70;100300.72;5018562;28;20018;-59
2021/01/17 02:46:54;;;;;;;19.65;10.55;;;;;;;-1.81;70.36;100296.81;5018744;28;20045;-61
2021/01/17 02:49:19;;;;;;;17.00;10.63;;;;;;;-1.74;70.21;100302.66;5018355;28;20072;-61
2021/01/17 02:51:47;;;;;;;17.88;10.85;;;;;;;-1.86;69.73;100291.47;5018583;28;20030;-61
2021/01/17 02:54:33;;;;;;;17.45;10.23;;;;;;;-1.81;69.65;100301.53;5018437;28;20030;-62
2021/01/17 02:57:09;;;;;;;17.58;11.50;;;;;;;-1.82;70.88;100297.97;5018477;28;20033;-61
2021/01/17 02:59:41;;;;;;;21.17;12.32;;;;;;;-1.93;70.19;100291.13;5018501;28;20017;-61
2021/01/17 03:02:07;;;;;;;18.20;10.93;;;;;;;-2.01;70.41;100297.44;5018913;28;20044;-62
2021/01/17 03:04:39;;;;;;;19.60;10.35;;;;;;;-2.06;70.13;100300.34;5017933;28;20429;-62
2021/01/17 03:07:08;;;;;;;23.08;12.27;;;;;;;-2.07;71.01;100295.97;5018538;28;20084;-61
2021/01/17 03:09:34;;;;;;;21.50;11.73;;;;;;;-2.08;70.87;100295.16;5018022;28;20025;-62
2021/01/17 03:12:03;;;;;;;21.67;12.07;;;;;;;-2.04;71.32;100300.84;5018326;28;20430;-59
2021/01/17 03:14:31;;;;;;;21.50;12.77;;;;;;;-2.07;71.33;100295.97;5018223;28;20022;-62
2021/01/17 03:16:56;;;;;;;24.73;11.95;;;;;;;-2.07;71.92;100293.22;5018356;28;20303;-61
2021/01/17 03:19:22;;;;;;;22.33;12.18;;;;;;;-1.97;71.48;100282.69;5017941;28;20025;-61
2021/01/17 03:21:47;;;;;;;30.15;15.30;;;;;;;-1.78;71.36;100274.13;5018114;28;20414;-61
2021/01/17 03:24:12;;;;;;;29.08;14.13;;;;;;;-1.81;70.69;100280.28;5018273;28;20405;-61
2021/01/17 03:26:37;;;;;;;23.45;13.25;;;;;;;-1.80;70.60;100276.41;5016855;28;20030;-61
2021/01/17 03:29:03;;;;;;;18.85;11.45;;;;;;;-1.73;71.19;100286.94;5018024;28;20026;-59
2021/01/17 03:31:28;;;;;;;22.08;11.55;;;;;;;-1.84;71.40;100272.69;5018490;28;20109;-61
2021/01/17 03:33:53;;;;;;;19.85;11.23;;;;;;;-1.96;71.53;100267.78;5017164;28;20118;-62
2021/01/17 03:36:19;;;;;;;21.25;11.80;;;;;;;-2.01;71.95;100275.41;5017791;28;20065;-59
2021/01/17 03:38:45;;;;;;;18.73;11.27;;;;;;;-2.07;72.39;100265.69;5018011;28;20054;-62
2021/01/17 03:41:11;;;;;;;20.75;11.65;;;;;;;-2.10;72.80;100261.63;5031677;28;20109;-61
2021/01/17 03:43:37;;;;;;;18.58;11.20;;;;;;;-2.05;73.15;100263.41;5017729;28;20424;-60
2021/01/17 03:46:02;;;;;;;21.98;12.60;;;;;;;-1.89;72.93;100272.84;5017544;28;20050;-62
2021/01/17 03:48:27;;;;;;;20.23;11.75;;;;;;;-1.89;72.69;100265.38;5017378;28;20030;-61
2021/01/17 03:50:53;;;;;;;19.45;12.45;;;;;;;-1.86;72.69;100261.19;5017399;28;20045;-60
2021/01/17 03:53:18;;;;;;;20.63;12.05;;;;;;;-1.68;71.69;100257.28;5017572;28;20314;-60
2021/01/17 03:55:43;;;;;;;22.23;12.45;;;;;;;-1.54;71.53;100259.06;5017541;28;20053;-61
2021/01/17 03:58:08;;;;;;;18.20;11.68;;;;;;;-1.62;71.40;100258.75;5017207;28;20320;-61
2021/01/17 04:00:34;;;;;;;22.83;12.93;;;;;;;-1.66;71.86;100256.94;5017608;28;20036;-62
2021/01/17 04:02:59;;;;;;;21.42;11.70;;;;;;;-1.69;71.69;100252.09;5016727;28;20022;-61
2021/01/17 04:05:24;;;;;;;23.90;13.02;;;;;;;-1.68;71.31;100254.50;5017390;28;20029;-61
2021/01/17 04:07:50;;;;;;;23.60;12.88;;;;;;;-1.70;71.67;100254.03;5017342;28;20021;-61
2021/01/17 04:10:15;;;;;;;24.45;13.27;;;;;;;-1.62;72.17;100239.47;5017364;28;20025;-61
2021/01/17 04:12:40;;;;;;;26.00;14.00;;;;;;;-1.71;71.62;100246.09;5016739;28;20049;-61
2021/01/17 04:15:06;;;;;;;22.35;12.75;;;;;;;-1.73;72.20;100246.41;5017053;28;20032;-61
2021/01/17 04:17:31;;;;;;;20.58;12.20;;;;;;;-1.75;72.37;100242.38;5016797;28;20366;-59
2021/01/17 04:19:57;;;;;;;25.27;13.90;;;;;;;-1.83;72.45;100237.66;5016843;28;20303;-61
2021/01/17 04:22:22;;;;;;;27.73;14.95;;;;;;;-1.84;72.41;100236.88;5016739;28;20014;-62
2021/01/17 04:24:47;;;;;;;35.15;17.27;;;;;;;-1.81;73.01;100230.69;5016965;28;20024;-60
2021/01/17 04:27:13;;;;;;;29.52;14.95;;;;;;;-1.76;72.13;100232.47;5016802;28;20022;-61
2021/01/17 04:29:38;;;;;;;27.42;14.70;;;;;;;-1.76;72.78;100236.03;5017605;28;20052;-56
2021/01/17 04:32:04;;;;;;;33.88;17.30;;;;;;;-1.82;72.08;100233.78;5017350;28;20049;-62
2021/01/17 04:34:30;;;;;;;41.78;21.33;;;;;;;-1.87;73.40;100230.06;5016156;28;20287;-60
2021/01/17 04:36:56;;;;;;;34.47;17.95;;;;;;;-1.79;72.89;100233.13;5016167;28;20068;-61
2021/01/17 04:39:21;;;;;;;24.30;15.27;;;;;;;-1.77;72.32;100230.88;5016221;28;20033;-61
2021/01/17 04:41:46;;;;;;;29.48;16.10;;;;;;;-1.79;72.61;100225.69;5027146;28;20029;-61
2021/01/17 04:44:13;;;;;;;32.03;15.20;;;;;;;-1.83;72.44;100224.72;5019743;28;20693;-61
2021/01/17 04:46:40;;;;;;;29.45;17.00;;;;;;;-1.82;73.02;100233.78;5016485;28;20025;-62
2021/01/17 04:49:07;;;;;;;33.55;18.95;;;;;;;-1.84;72.71;100231.34;5016319;28;20026;-61
2021/01/17 04:51:34;;;;;;;37.53;18.67;;;;;;;-1.91;72.36;100229.09;5016649;28;20326;-61
2021/01/17 04:54:01;;;;;;;41.60;20.38;;;;;;;-1.86;72.80;100233.63;5016106;28;20022;-61
2021/01/17 04:56:31;;;;;;;33.88;17.63;;;;;;;-1.82;73.65;100236.53;5016203;28;20352;-61
2021/01/17 04:59:11;;;;;;;34.13;17.88;;;;;;;-1.68;72.67;100232.47;5016343;28;20101;-61
2021/01/17 05:01:48;;;;;;;32.30;16.70;;;;;;;-1.75;72.17;100234.09;5015725;28;20018;-61
2021/01/17 05:04:41;;;;;;;29.27;16.08;;;;;;;-1.84;72.53;100225.84;5016303;28;20028;-60
2021/01/17 05:07:21;;;;;;;26.63;16.15;;;;;;;-1.94;73.14;100226.94;5016198;28;20418;-61
2021/01/17 05:10:11;;;;;;;34.33;17.90;;;;;;;-1.87;73.58;100232.81;5015820;28;20037;-52
2021/01/17 05:12:53;;;;;;;30.13;17.52;;;;;;;-1.91;73.12;100231.03;5016164;28;20497;-60
2021/01/17 05:15:21;;;;;;;31.17;16.98;;;;;;;-1.90;73.35;100232.66;5015769;28;20069;-62
2021/01/17 05:17:46;;;;;;;29.00;16.27;;;;;;;-1.96;72.90;100233.91;5015911;28;20452;-61
2021/01/17 05:20:12;;;;;;;27.83;15.93;;;;;;;-1.98;72.86;100234.25;5015784;28;20030;-61
2021/01/17 05:22:37;;;;;;;27.60;15.57;;;;;;;-2.02;72.99;100237.97;5016035;28;20400;-62
2021/01/17 05:25:05;;;;;;;28.02;16.10;;;;;;;-2.08;72.82;100234.56;5015808;28;20117;-61
2021/01/17 05:27:31;;;;;;;25.05;15.65;;;;;;;-2.00;73.39;100235.69;5015589;28;20034;-58
2021/01/17 05:29:57;;;;;;;28.08;15.30;;;;;;;-2.04;73.26;100241.06;5015565;28;20037;-60
2021/01/17 05:32:23;;;;;;;26.95;15.25;;;;;;;-2.07;73.40;100238.94;5015649;28;20030;-61
2021/01/17 05:34:50;;;;;;;27.38;14.68;;;;;;;-2.10;73.58;100239.59;5015797;28;20036;-62
2021/01/17 05:37:15;;;;;;;30.65;16.05;;;;;;;-2.13;73.13;100245.75;5015509;28;20049;-62
2021/01/17 05:40:04;;;;;;;33.65;17.90;;;;;;;-2.11;72.95;100240.72;5015818;28;20045;-62
2021/01/17 05:42:34;;;;;;;34.03;17.42;;;;;;;-2.09;73.71;100240.41;5018252;28;20029;-61
2021/01/17 05:45:12;;;;;;;30.90;17.65;;;;;;;-2.04;73.48;100241.06;5026320;28;20242;-59
2021/01/17 05:47:38;;;;;;;26.42;14.43;;;;;;;-1.99;73.22;100240.06;5015286;28;20030;-55
2021/01/17 05:50:09;;;;;;;40.33;21.15;;;;;;;-1.97;73.44;100240.56;5015042;28;20429;-61
2021/01/17 05:52:35;;;;;;;57.85;25.85;;;;;;;-1.99;73.02;100238.13;5015359;28;20037;-60
2021/01/17 05:55:01;;;;;;;50.03;23.75;;;;;;;-2.03;72.93;100239.91;5015200;28;20029;-61
2021/01/17 05:57:26;;;;;;;34.72;19.38;;;;;;;-2.00;73.53;100238.47;5015448;28;20033;-61
2021/01/17 05:59:53;;;;;;;26.85;16.08;;;;;;;-1.93;73.30;100238.78;5015317;28;20030;-61
2021/01/17 06:02:20;;;;;;;30.95;17.40;;;;;;;-1.92;72.74;100240.41;5015333;28;20040;-61
2021/01/17 06:04:54;;;;;;;30.90;17.38;;;;;;;-1.98;73.02;100237.00;5015255;28;20057;-58
2021/01/17 06:07:22;;;;;;;30.42;17.42;;;;;;;-2.02;73.48;100246.22;5015549;28;20417;-61
2021/01/17 06:09:56;;;;;;;30.02;17.45;;;;;;;-2.06;73.55;100237.00;5014938;28;20045;-60
2021/01/17 06:12:29;;;;;;;26.63;16.88;;;;;;;-2.10;73.68;100233.28;5015437;28;20460;-55
2021/01/17 06:15:09;;;;;;;36.78;21.35;;;;;;;-2.14;74.49;100240.56;5014798;28;20026;-56
2021/01/17 06:17:38;;;;;;;38.47;19.70;;;;;;;-2.20;74.05;100237.94;5015490;28;20405;-60
2021/01/17 06:20:10;;;;;;;34.92;20.63;;;;;;;-2.25;74.01;100234.53;5014989;28;20076;-60
2021/01/17 06:22:36;;;;;;;45.97;24.08;;;;;;;-2.23;74.49;100235.81;5015193;28;20536;-63
2021/01/17 06:25:06;;;;;;;49.55;25.27;;;;;;;-2.22;74.11;100231.94;5015352;28;20422;-60
2021/01/17 06:27:32;;;;;;;47.10;24.77;;;;;;;-2.24;74.00;100238.91;5013815;28;20064;-62
2021/01/17 06:29:58;;;;;;;50.08;24.80;;;;;;;-2.21;74.22;100246.50;5015314;28;20361;-53
2021/01/17 06:32:28;;;;;;;38.20;21.02;;;;;;;-2.26;74.11;100247.47;5015039;28;20030;-61
2021/01/17 06:34:56;;;;;;;38.60;21.48;;;;;;;-2.25;74.48;100251.84;5015056;28;20081;-61
2021/01/17 06:37:25;;;;;;;39.13;21.23;;;;;;;-2.25;73.72;100257.38;5015014;28;20054;-60
2021/01/17 06:39:58;;;;;;;37.85;20.65;;;;;;;-2.28;74.31;100255.25;5015502;28;20026;-60
2021/01/17 06:42:24;;;;;;;40.50;21.13;;;;;;;-2.27;74.54;100265.13;5014805;28;20034;-60
2021/01/17 06:44:51;;;;;;;34.75;18.98;;;;;;;-2.27;74.53;100259.63;5022501;28;20410;-61
2021/01/17 06:47:22;;;;;;;55.90;26.40;;;;;;;-2.28;75.23;100260.75;5021146;28;20321;-61
2021/01/17 06:49:49;;;;;;;60.17;23.55;;;;;;;-2.28;74.60;100266.25;5015091;28;20057;-61
2021/01/17 06:52:16;;;;;;;37.47;20.23;;;;;;;-2.22;75.32;100270.50;5015231;28;20026;-61
2021/01/17 06:54:52;;;;;;;33.92;20.20;;;;;;;-2.06;74.62;100265.34;5014817;28;20057;-60
2021/01/17 06:57:19;;;;;;;33.35;19.58;;;;;;;-2.07;74.22;100268.44;5013910;28;20025;-61
2021/01/17 06:59:51;;;;;;;33.85;19.02;;;;;;;-2.09;74.49;100276.19;5014878;28;20110;-60
2021/01/17 07:02:25;;;;;;;;;;;;;;;-2.02;74.67;100274.59;5018381;28;20033;-61
2021/01/17 07:04:53;;;;;;;30.98;17.65;;;;;;;-1.95;74.16;100276.84;5018327;28;19909;-60
2021/01/17 07:07:54;;;;;;;38.35;19.40;;;;;;;-1.95;74.08;100274.09;5018518;28;20061;-61
2021/01/17 07:10:24;;;;;;;53.90;29.27;;;;;;;-1.97;74.02;100276.38;5018294;28;20018;-60
2021/01/17 07:13:10;;;;;;;47.88;25.52;;;;;;;-2.00;74.30;100279.78;5017917;28;20034;-60
2021/01/17 07:15:42;;;;;;;37.63;21.13;;;;;;;-2.01;74.17;100283.66;5018266;28;20053;-62
2021/01/17 07:18:08;;;;;;;38.47;17.75;;;;;;;-1.97;74.35;100281.88;5017931;28;20021;-60
2021/01/17 07:20:42;;;;;;;39.47;19.95;;;;;;;-1.99;74.48;100281.41;5018305;28;20106;-61
2021/01/17 07:23:10;;;;;;;38.47;19.35;;;;;;;-2.00;74.60;100290.78;5021288;28;20018;-59
2021/01/17 07:25:38;;;;;;;50.72;24.55;;;;;;;-1.94;75.00;100281.22;5030284;28;20434;-61
2021/01/17 07:28:12;;;;;;;41.63;21.35;;;;;;;-1.91;74.17;100286.94;5035408;28;20059;-63
2021/01/17 07:30:59;;;;;;;38.38;20.52;;;;;;;-1.88;74.17;100291.00;5032376;28;20029;-60
2021/01/17 07:33:35;;;;;;;42.05;21.80;;;;;;;-1.88;74.21;100294.56;5035190;28;20034;-62
2021/01/17 07:36:10;;;;;;;41.38;22.48;;;;;;;-1.83;73.87;100288.06;5032333;28;20042;-62
2021/01/17 07:38:39;;;;;;;35.22;19.45;;;;;;;-1.80;74.02;100292.94;5032483;28;20400;-64
2021/01/17 07:41:07;;;;;;;33.47;18.52;;;;;;;-1.79;73.66;100291.81;5028242;28;20148;-62
2021/01/17 07:43:33;;;;;;;29.98;17.63;;;;;;;-1.81;73.90;100291.31;5017507;28;20101;-60
2021/01/17 07:46:04;;;;;;;30.85;17.30;;;;;;;-1.82;73.82;100289.69;5028431;28;20068;-62
2021/01/17 07:48:30;;;;;;;33.53;19.37;;;;;;;-1.79;74.38;100286.28;5024682;28;20017;-60
2021/01/17 07:50:57;;;;;;;45.00;25.42;;;;;;;-1.78;74.30;100284.34;5023645;28;20021;-63
2021/01/17 07:53:37;;;;;;;44.97;23.83;;;;;;;-1.73;74.13;100292.44;5018409;28;20105;-63
2021/01/17 07:56:08;;;;;;;31.45;20.15;;;;;;;-1.75;73.80;100281.75;5019391;28;20028;-63
2021/01/17 07:58:37;;;;;;;41.92;23.13;;;;;;;-1.76;73.99;100282.88;5026051;28;20471;-63
2021/01/17 08:01:03;;;;;;;55.92;32.55;;;;;;;-1.70;73.50;100280.78;5022577;28;20082;-62
2021/01/17 08:03:28;;;;;;;41.13;22.83;;;;;;;-1.70;73.88;100273.31;5016704;28;20018;-62
2021/01/17 08:05:57;;;;;;;36.10;20.02;;;;;;;-1.63;74.21;100270.91;5021504;28;20497;-62
2021/01/17 08:08:35;;;;;;;41.38;23.75;;;;;;;-1.58;74.06;100278.22;5019437;28;20018;-62
2021/01/17 08:11:03;;;;;;;34.67;19.92;;;;;;;-1.58;73.63;100279.03;5018982;28;20184;-63
2021/01/17 08:13:33;;;;;;;36.00;20.25;;;;;;;-1.61;73.83;100285.19;5021507;28;20443;-62
2021/01/17 08:16:09;;;;;;;32.72;18.30;;;;;;;-1.51;73.73;100280.47;5021092;28;20033;-62
2021/01/17 08:18:36;;;;;;;32.05;18.48;;;;;;;-1.51;73.55;100283.22;5024415;28;20157;-62
2021/01/17 08:21:25;;;;;;;30.23;17.00;;;;;;;-1.52;73.73;100287.94;5022360;28;20112;-62
2021/01/17 08:24:12;;;;;;;35.28;17.83;;;;;;;-1.49;73.30;100286.47;5013634;28;20029;-63
2021/01/17 08:26:58;;;;;;;27.65;16.80;;;;;;;-1.50;73.88;100290.34;5022485;28;20715;-62
2021/01/17 08:29:24;;;;;;;29.23;16.17;;;;;;;-1.47;73.79;100295.22;5030991;28;20014;-61
2021/01/17 08:31:50;;;;;;;28.63;16.58;;;;;;;-1.44;73.41;100302.84;5016903;28;20026;-62
2021/01/17 08:34:17;;;;;;;30.52;17.13;;;;;;;-1.33;73.48;100306.91;5018555;28;20212;-63
2021/01/17 08:36:44;;;;;;;35.53;17.92;;;;;;;-1.23;73.24;100305.75;5023785;28;20060;-62
2021/01/17 08:39:10;;;;;;;38.20;18.90;;;;;;;-1.26;72.66;100307.22;5018065;28;20317;-62
2021/01/17 08:41:39;;;;;;;25.25;15.23;;;;;;;-1.27;72.64;100308.34;5027870;28;20033;-62
2021/01/17 08:44:07;;;;;;;30.98;16.42;;;;;;;-1.21;72.91;100307.03;5027888;28;20026;-62
2021/01/17 08:46:35;;;;;;;26.92;15.55;;;;;;;-1.13;72.68;100310.94;5017825;28;20021;-62
2021/01/17 08:49:01;;;;;;;29.98;16.42;;;;;;;-1.11;72.73;100319.69;5025035;28;20356;-63
2021/01/17 08:51:27;;;;;;;27.35;15.18;;;;;;;-1.16;72.50;100320.66;5025184;28;20321;-61
2021/01/17 08:53:53;;;;;;;30.13;16.80;;;;;;;-1.19;72.75;100321.31;5029937;28;20022;-61
2021/01/17 08:56:20;;;;;;;31.05;16.88;;;;;;;-1.16;73.01;100317.91;5025196;28;20084;-61
2021/01/17 08:58:47;;;;;;;30.42;17.45;;;;;;;-1.15;72.95;100324.22;5029321;28;20025;-62
2021/01/17 09:01:14;;;;;;;29.23;15.88;;;;;;;-1.07;72.59;100327.00;5026530;28;20018;-62
2021/01/17 09:03:42;;;;;;;24.17;14.20;;;;;;;-0.99;72.14;100337.22;5015408;28;20495;-62
2021/01/17 09:06:26;;;;;;;24.98;14.68;;;;;;;-1.00;72.10;100332.81;5021802;28;20068;-61
2021/01/17 09:08:55;;;;;;;29.98;16.23;;;;;;;-0.95;72.91;100335.41;5028429;28;20022;-62
2021/01/17 09:11:32;;;;;;;25.65;13.90;;;;;;;-0.93;72.93;100349.69;5027255;28;20434;-61
2021/01/17 09:14:24;;;;;;;25.45;14.80;;;;;;;-0.91;73.36;100346.59;5027942;28;20440;-61
2021/01/17 09:16:55;;;;;;;24.25;14.25;;;;;;;-0.84;73.48;100351.63;5023836;28;20357;-63
2021/01/17 09:19:24;;;;;;;22.48;14.18;;;;;;;-0.78;73.39;100348.38;5022793;28;20098;-62
2021/01/17 09:21:52;;;;;;;27.05;16.25;;;;;;;-0.71;72.70;100347.88;5023543;28;20321;-62
2021/01/17 09:24:20;;;;;;;27.48;15.73;;;;;;;-0.70;72.85;100352.25;5028346;28;20024;-61
2021/01/17 09:26:47;;;;;;;27.45;14.13;;;;;;;-0.79;72.96;100349.53;5015986;28;20026;-63
2021/01/17 09:29:19;;;;;;;25.23;15.52;;;;;;;-0.77;72.71;100343.69;5015892;28;20421;-61
2021/01/17 09:31:50;;;;;;;28.60;16.50;;;;;;;-0.80;72.82;100344.34;5015524;28;20426;-62
2021/01/17 09:34:33;;;;;;;29.38;15.23;;;;;;;-0.82;72.87;100352.94;5015704;28;20022;-61
2021/01/17 09:37:01;;;;;;;43.95;15.40;;;;;;;-0.84;72.70;100357.13;5024034;28;20041;-62
2021/01/17 09:39:35;;;;;;;28.00;15.23;;;;;;;-0.80;73.59;100358.13;5021327;28;20025;-63
2021/01/17 09:42:45;;;;;;;79.97;19.10;;;;;;;-0.76;73.58;100359.91;5087950;27;20378;-65
2021/01/17 09:45:10;;;;;;;30.40;16.10;;;;;;;-0.76;73.56;100359.09;5068457;28;20035;-63
2021/01/17 09:47:37;;;;;;;24.40;15.07;;;;;;;-0.73;73.63;100352.91;5075037;28;20032;-63
2021/01/17 09:50:10;;;;;;;27.45;15.93;;;;;;;-0.75;72.95;100357.94;5075760;28;20031;-63
2021/01/17 09:52:40;;;;;;;30.63;15.52;;;;;;;-0.81;72.47;100359.28;5076688;28;20308;-64
2021/01/17 09:55:10;;;;;;;26.98;15.55;;;;;;;-0.82;73.29;100355.69;5073278;28;20078;-63
2021/01/17 09:57:38;;;;;;;32.53;16.75;;;;;;;-0.81;73.85;100362.84;5074969;28;20375;-62
2021/01/17 10:00:08;;;;;;;30.00;18.40;;;;;;;-0.81;73.03;100362.84;5072625;28;20062;-66
2021/01/17 10:02:36;;;;;;;30.23;17.63;;;;;;;-0.79;72.64;100359.75;5077955;28;20400;-64
2021/01/17 10:05:01;;;;;;;29.70;17.85;;;;;;;-0.80;72.61;100364.47;5070314;28;20087;-64
2021/01/17 10:07:27;;;;;;;40.08;20.23;;;;;;;-0.81;72.61;100362.03;5064019;28;20432;-62
2021/01/17 10:09:54;;;;;;;34.50;19.80;;;;;;;-0.81;72.84;100357.31;5058690;28;20039;-64
2021/01/17 10:12:20;;;;;;;36.45;20.80;;;;;;;-0.78;72.77;100361.38;5068322;28;20013;-64
2021/01/17 10:14:46;;;;;;;34.53;19.08;;;;;;;-0.76;72.26;100359.09;5074705;28;20379;-63
2021/01/17 10:17:12;;;;;;;28.10;17.10;;;;;;;-0.70;72.51;100357.78;5073737;28;20104;-64
2021/01/17 10:19:39;;;;;;;33.13;17.90;;;;;;;-0.65;71.44;100349.31;5067877;28;20025;-63
2021/01/17 10:22:09;;;;;;;38.53;22.88;;;;;;;-0.64;71.73;100356.44;5076213;28;20025;-63
2021/01/17 10:24:34;;;;;;;34.72;21.15;;;;;;;-0.64;71.94;100350.94;5081573;28;20033;-63
2021/01/17 10:27:05;;;;;;;29.88;18.58;;;;;;;-0.64;72.34;100357.25;5074894;28;20308;-63
2021/01/17 10:29:38;;;;;;;29.38;17.95;;;;;;;-0.58;72.43;100354.31;5089113;28;20111;-64
2021/01/17 10:32:12;;;;;;;31.90;17.55;;;;;;;-0.58;72.04;100352.38;5091495;28;20028;-62
2021/01/17 10:34:40;;;;;;;29.92;18.02;;;;;;;-0.58;71.75;100360.66;5085858;28;20107;-64
2021/01/17 10:37:08;;;;;;;37.33;21.85;;;;;;;-0.58;72.37;100355.13;5080482;28;20024;-64
2021/01/17 10:39:37;;;;;;;34.20;19.98;;;;;;;-0.54;72.41;100349.78;5080466;28;20028;-64
2021/01/17 10:42:23;;;;;;;34.13;20.55;;;;;;;-0.51;72.00;100349.94;5081423;28;20045;-64
2021/01/17 10:44:56;;;;;;;39.03;20.77;;;;;;;-0.48;71.70;100349.28;5072515;28;20039;-64
2021/01/17 10:47:46;;;;;;;37.55;21.00;;;;;;;-0.45;71.85;100342.28;5074969;28;20029;-63
2021/01/17 10:50:16;;;;;;;54.47;24.50;;;;;;;-0.42;71.35;100356.25;5084478;28;20020;-63
2021/01/17 10:53:04;;;;;;;48.47;24.23;;;;;;;-0.42;71.54;100356.25;5076589;28;20028;-63
2021/01/17 10:55:40;;;;;;;38.67;21.42;;;;;;;-0.41;71.21;100354.28;5069555;28;20028;-64
2021/01/17 10:58:08;;;;;;;39.75;21.48;;;;;;;-0.42;70.65;100347.13;5071350;28;20020;-64
2021/01/17 11:00:34;;;;;;;33.25;18.70;;;;;;;-0.41;71.22;100343.25;5069412;28;20032;-63
2021/01/17 11:03:01;;;;;;;43.47;24.13;;;;;;;-0.39;71.86;100355.56;5069583;28;20020;-62
2021/01/17 11:05:27;;;;;;;39.45;22.13;;;;;;;-0.38;72.20;100342.56;5071559;28;20016;-62
2021/01/17 11:07:52;;;;;;;31.95;18.77;;;;;;;-0.35;72.26;100348.25;5067593;28;20074;-63
2021/01/17 11:10:18;;;;;;;30.17;18.13;;;;;;;-0.33;72.05;100339.63;5060000;28;20028;-63
2021/01/17 11:12:44;;;;;;;35.83;20.15;;;;;;;-0.24;71.06;100342.38;5065985;28;20033;-64
2021/01/17 11:15:12;;;;;;;41.60;25.63;;;;;;;-0.20;71.19;100348.84;5067338;28;20020;-63
2021/01/17 11:17:38;;;;;;;50.03;27.95;;;;;;;-0.16;71.26;100345.09;5068621;28;20021;-64
2021/01/17 11:20:10;;;;;;;38.92;22.05;;;;;;;-0.11;71.50;100346.84;5069786;28;20024;-63